createdAt,value
2017-03-01T00:00:06.908Z,0
2017-03-01T00:01:15.892Z,0
2017-03-01T00:02:24.889Z,0
2017-03-01T00:03:33.887Z,0
2017-03-01T00:04:43.207Z,0
2017-03-01T00:05:52.210Z,0
2017-03-01T00:07:01.187Z,0
2017-03-01T00:08:10.171Z,0
2017-03-01T00:09:19.181Z,0
2017-03-01T00:10:28.415Z,0
2017-03-01T00:11:37.391Z,0
2017-03-01T00:12:46.400Z,0
2017-03-01T00:13:55.379Z,0
2017-03-01T00:15:04.380Z,0
2017-03-01T00:16:13.691Z,0
2017-03-01T00:17:22.683Z,0
2017-03-01T00:18:31.667Z,0
2017-03-01T00:19:40.655Z,0
2017-03-01T00:20:49.645Z,0
2017-03-01T00:21:58.872Z,0
2017-03-01T00:23:08.280Z,0
2017-03-01T00:24:17.349Z,0
2017-03-01T00:25:26.342Z,0
2017-03-01T00:26:35.319Z,0
2017-03-01T00:27:44.547Z,0
2017-03-01T00:28:53.542Z,0
2017-03-01T00:30:02.528Z,0
2017-03-01T00:31:11.527Z,0
2017-03-01T00:32:20.522Z,0
2017-03-01T00:33:29.808Z,0
2017-03-01T00:34:38.803Z,0
2017-03-01T00:35:48.219Z,0
2017-03-01T00:36:57.212Z,0
2017-03-01T00:38:06.299Z,0
2017-03-01T00:39:15.529Z,0
2017-03-01T00:40:24.597Z,0
2017-03-01T00:41:33.583Z,0
2017-03-01T00:42:43.180Z,0
2017-03-01T00:43:52.170Z,0
2017-03-01T00:45:01.407Z,0
2017-03-01T00:46:10.438Z,0
2017-03-01T00:47:19.425Z,0
2017-03-01T00:48:28.499Z,0
2017-03-01T00:49:37.493Z,0
2017-03-01T00:50:46.775Z,0
2017-03-01T00:51:56.256Z,0
2017-03-01T00:53:05.254Z,0
2017-03-01T00:54:14.250Z,0
2017-03-01T00:55:23.253Z,0
2017-03-01T00:56:32.540Z,0
2017-03-01T00:57:41.521Z,0
2017-03-01T00:58:50.521Z,0
2017-03-01T00:59:59.512Z,0
2017-03-01T01:01:08.594Z,0
2017-03-01T01:02:18.687Z,0
2017-03-01T01:03:27.676Z,0
2017-03-01T01:04:37.084Z,0
2017-03-01T01:05:46.499Z,0
2017-03-01T01:06:55.561Z,0
2017-03-01T01:08:04.873Z,0
2017-03-01T01:09:13.951Z,0
2017-03-01T01:10:23.019Z,0
2017-03-01T01:11:32.017Z,0
2017-03-01T01:12:41.091Z,0
2017-03-01T01:13:50.332Z,0
2017-03-01T01:14:59.399Z,0
2017-03-01T01:16:08.375Z,0
2017-03-01T01:17:17.358Z,0
2017-03-01T01:18:26.334Z,0
2017-03-01T01:19:35.623Z,0
2017-03-01T01:20:44.624Z,0
2017-03-01T01:21:53.638Z,0
2017-03-01T01:23:02.711Z,0
2017-03-01T01:24:11.700Z,0
2017-03-01T01:25:21.077Z,0
2017-03-01T01:26:30.073Z,0
2017-03-01T01:27:39.083Z,0
2017-03-01T01:28:48.471Z,0
2017-03-01T01:29:57.445Z,0
2017-03-01T01:31:06.739Z,0
2017-03-01T01:32:15.725Z,0
2017-03-01T01:33:24.714Z,0
2017-03-01T01:34:34.097Z,0
2017-03-01T01:35:43.070Z,0
2017-03-01T01:36:52.443Z,0
2017-03-01T01:38:01.433Z,0
2017-03-01T01:39:10.823Z,0
2017-03-01T01:40:19.797Z,0
2017-03-01T01:41:28.797Z,0
2017-03-01T01:42:38.020Z,0
2017-03-01T01:43:47.178Z,0
2017-03-01T01:44:56.167Z,0
2017-03-01T01:46:05.161Z,0
2017-03-01T01:47:14.543Z,0
2017-03-01T01:48:24.329Z,0
2017-03-01T01:49:33.306Z,0
2017-03-01T01:50:42.297Z,0
2017-03-01T01:51:51.374Z,0
2017-03-01T01:53:00.443Z,0
2017-03-01T01:54:09.744Z,0
2017-03-01T01:55:18.717Z,0
2017-03-01T01:56:27.703Z,0
2017-03-01T01:57:36.688Z,0
2017-03-01T01:58:45.670Z,0
2017-03-01T01:59:54.948Z,0
2017-03-01T02:01:03.939Z,0
2017-03-01T02:02:12.936Z,0
2017-03-01T02:03:21.916Z,0
2017-03-01T02:04:30.907Z,0
2017-03-01T02:05:40.608Z,0
2017-03-01T02:06:49.607Z,0
2017-03-01T02:07:58.599Z,0
2017-03-01T02:09:07.574Z,0
2017-03-01T02:10:16.572Z,0
2017-03-01T02:11:25.870Z,0
2017-03-01T02:12:34.954Z,0
2017-03-01T02:13:43.929Z,0
2017-03-01T02:14:53.319Z,0
2017-03-01T02:16:02.310Z,0
2017-03-01T02:17:11.559Z,0
2017-03-01T02:18:20.542Z,0
2017-03-01T02:19:29.527Z,0
2017-03-01T02:20:38.597Z,0
2017-03-01T02:21:47.583Z,0
2017-03-01T02:22:56.874Z,0
2017-03-01T02:24:05.847Z,0
2017-03-01T02:25:14.830Z,0
2017-03-01T02:26:23.923Z,0
2017-03-01T02:27:32.921Z,0
2017-03-01T02:28:42.214Z,0
2017-03-01T02:29:51.304Z,0
2017-03-01T02:31:00.297Z,0
2017-03-01T02:32:09.274Z,0
2017-03-01T02:33:18.262Z,0
2017-03-01T02:34:27.502Z,0
2017-03-01T02:35:36.518Z,0
2017-03-01T02:36:46.009Z,0
2017-03-01T02:37:54.993Z,0
2017-03-01T02:39:03.992Z,0
2017-03-01T02:40:13.284Z,0
2017-03-01T02:41:22.255Z,0
2017-03-01T02:42:31.242Z,0
2017-03-01T02:43:40.255Z,0
2017-03-01T02:44:49.233Z,0
2017-03-01T02:45:58.525Z,0
2017-03-01T02:47:07.511Z,0
2017-03-01T02:48:16.591Z,0
2017-03-01T02:49:25.574Z,0
2017-03-01T02:50:34.588Z,0
2017-03-01T02:51:43.895Z,0
2017-03-01T02:52:52.867Z,0
2017-03-01T02:54:01.859Z,0
2017-03-01T02:55:10.856Z,0
2017-03-01T02:56:19.927Z,0
2017-03-01T02:57:29.223Z,0
2017-03-01T02:58:38.220Z,0
2017-03-01T02:59:47.279Z,0
2017-03-01T03:00:57.094Z,0
2017-03-01T03:02:06.071Z,0
2017-03-01T03:03:15.299Z,0
2017-03-01T03:04:24.697Z,0
2017-03-01T03:05:33.700Z,0
2017-03-01T03:06:42.676Z,0
2017-03-01T03:07:51.675Z,0
2017-03-01T03:09:00.998Z,0
2017-03-01T03:10:10.015Z,0
2017-03-01T03:11:19.082Z,0
2017-03-01T03:12:28.826Z,0
2017-03-01T03:13:37.817Z,0
2017-03-01T03:14:47.093Z,0
2017-03-01T03:15:56.091Z,0
2017-03-01T03:17:05.063Z,0
2017-03-01T03:18:14.046Z,0
2017-03-01T03:19:23.053Z,0
2017-03-01T03:20:32.414Z,0
2017-03-01T03:21:41.489Z,0
2017-03-01T03:22:50.476Z,0
2017-03-01T03:23:59.552Z,0
2017-03-01T03:25:08.544Z,0
2017-03-01T03:26:17.878Z,0
2017-03-01T03:27:26.881Z,0
2017-03-01T03:28:35.868Z,0
2017-03-01T03:29:44.860Z,0
2017-03-01T03:30:54.661Z,0
2017-03-01T03:32:03.958Z,0
2017-03-01T03:33:12.961Z,0
2017-03-01T03:34:21.961Z,0
2017-03-01T03:35:31.043Z,0
2017-03-01T03:36:40.130Z,0
2017-03-01T03:37:49.440Z,0
2017-03-01T03:38:58.420Z,0
2017-03-01T03:40:07.416Z,0
2017-03-01T03:41:16.401Z,0
2017-03-01T03:42:25.381Z,0
2017-03-01T03:43:35.947Z,0
2017-03-01T03:44:46.193Z,0
2017-03-01T03:45:56.444Z,0
2017-03-01T03:47:05.852Z,0
2017-03-01T03:48:16.083Z,0
2017-03-01T03:49:25.378Z,0
2017-03-01T03:50:35.947Z,0
2017-03-01T03:51:44.932Z,0
2017-03-01T03:52:53.917Z,0
2017-03-01T03:54:02.888Z,0
2017-03-01T03:55:12.186Z,0
2017-03-01T03:56:21.179Z,0
2017-03-01T03:57:30.216Z,0
2017-03-01T03:58:39.206Z,0
2017-03-01T03:59:48.296Z,0
2017-03-01T04:00:57.622Z,0
2017-03-01T04:02:06.606Z,0
2017-03-01T04:03:15.683Z,0
2017-03-01T04:04:25.570Z,0
2017-03-01T04:05:34.989Z,0
2017-03-01T04:06:44.212Z,0
2017-03-01T04:07:53.501Z,0
2017-03-01T04:09:02.935Z,0
2017-03-01T04:10:11.917Z,0
2017-03-01T04:11:21.143Z,0
2017-03-01T04:12:31.166Z,0
2017-03-01T04:13:41.524Z,0
2017-03-01T04:14:51.108Z,0
2017-03-01T04:16:00.112Z,0
2017-03-01T04:17:09.360Z,0
2017-03-01T04:18:18.607Z,0
2017-03-01T04:19:27.591Z,0
2017-03-01T04:20:37.880Z,0
2017-03-01T04:21:46.858Z,0
2017-03-01T04:22:55.831Z,0
2017-03-01T04:24:05.105Z,0
2017-03-01T04:25:14.352Z,0
2017-03-01T04:26:24.309Z,0
2017-03-01T04:27:33.539Z,0
2017-03-01T04:28:42.520Z,0
2017-03-01T04:29:52.522Z,0
2017-03-01T04:31:02.101Z,0
2017-03-01T04:32:11.627Z,0
2017-03-01T04:33:22.045Z,0
2017-03-01T04:34:31.023Z,0
2017-03-01T04:35:42.193Z,0
2017-03-01T04:36:51.237Z,0
2017-03-01T04:38:00.219Z,0
2017-03-01T04:39:09.876Z,0
2017-03-01T04:40:20.323Z,0
2017-03-01T04:41:29.622Z,0
2017-03-01T04:42:38.602Z,0
2017-03-01T04:43:47.589Z,0
2017-03-01T04:44:56.740Z,0
2017-03-01T04:46:05.793Z,0
2017-03-01T04:47:15.024Z,0
2017-03-01T04:48:24.009Z,0
2017-03-01T04:49:33.501Z,0
2017-03-01T04:50:42.485Z,0
2017-03-01T04:51:51.560Z,0
2017-03-01T04:53:01.249Z,0
2017-03-01T04:54:10.221Z,0
2017-03-01T04:55:19.219Z,0
2017-03-01T04:56:28.193Z,0
2017-03-01T04:57:37.177Z,0
2017-03-01T04:58:46.455Z,0
2017-03-01T04:59:55.528Z,0
2017-03-01T05:01:04.519Z,0
2017-03-01T05:02:13.501Z,0
2017-03-01T05:03:22.480Z,0
2017-03-01T05:04:31.760Z,0
2017-03-01T05:05:40.841Z,0
2017-03-01T05:06:49.836Z,0
2017-03-01T05:07:58.814Z,0
2017-03-01T05:09:07.805Z,0
2017-03-01T05:10:17.150Z,0
2017-03-01T05:11:26.150Z,0
2017-03-01T05:12:35.130Z,0
2017-03-01T05:13:44.509Z,0
2017-03-01T05:14:53.903Z,0
2017-03-01T05:16:03.272Z,0
2017-03-01T05:17:12.349Z,0
2017-03-01T05:18:21.333Z,0
2017-03-01T05:19:30.324Z,0
2017-03-01T05:20:39.310Z,0
2017-03-01T05:21:48.613Z,0
2017-03-01T05:22:57.613Z,0
2017-03-01T05:24:06.593Z,0
2017-03-01T05:25:15.661Z,0
2017-03-01T05:26:25.249Z,0
2017-03-01T05:27:34.794Z,0
2017-03-01T05:28:44.273Z,0
2017-03-01T05:29:54.630Z,0
2017-03-01T05:31:04.335Z,0
2017-03-01T05:32:13.901Z,0
2017-03-01T05:33:23.328Z,0
2017-03-01T05:34:32.322Z,0
2017-03-01T05:35:41.719Z,0
2017-03-01T05:36:51.326Z,0
2017-03-01T05:38:00.319Z,0
2017-03-01T05:39:09.555Z,0
2017-03-01T05:40:18.954Z,0
2017-03-01T05:41:28.824Z,0
2017-03-01T05:42:38.465Z,0
2017-03-01T05:43:48.447Z,0
2017-03-01T05:44:58.868Z,0
2017-03-01T05:46:08.658Z,0
2017-03-01T05:47:18.891Z,0
2017-03-01T05:48:28.639Z,0
2017-03-01T05:49:37.617Z,0
2017-03-01T05:50:47.215Z,0
2017-03-01T05:51:56.456Z,0
2017-03-01T05:53:06.429Z,0
2017-03-01T05:54:16.131Z,0
2017-03-01T05:55:25.184Z,0
2017-03-01T05:56:35.495Z,0
2017-03-01T05:57:45.025Z,0
2017-03-01T05:58:54.131Z,5
2017-03-01T06:00:03.791Z,5
2017-03-01T06:01:12.771Z,5
2017-03-01T06:02:22.055Z,5
2017-03-01T06:03:31.431Z,5
2017-03-01T06:04:40.416Z,5
2017-03-01T06:05:49.390Z,5
2017-03-01T06:06:58.481Z,10
2017-03-01T06:08:08.154Z,10
2017-03-01T06:09:17.204Z,10
2017-03-01T06:10:26.629Z,10
2017-03-01T06:11:37.420Z,10
2017-03-01T06:12:46.860Z,10
2017-03-01T06:13:56.527Z,15
2017-03-01T06:15:05.523Z,15
2017-03-01T06:16:14.501Z,15
2017-03-01T06:17:23.566Z,15
2017-03-01T06:18:32.702Z,15
2017-03-01T06:19:43.074Z,15
2017-03-01T06:20:52.695Z,15
2017-03-01T06:22:01.677Z,15
2017-03-01T06:23:11.118Z,15
2017-03-01T06:24:20.298Z,15
2017-03-01T06:25:29.680Z,15
2017-03-01T06:26:38.653Z,20
2017-03-01T06:27:47.627Z,20
2017-03-01T06:28:57.273Z,20
2017-03-01T06:30:07.036Z,20
2017-03-01T06:31:16.948Z,20
2017-03-01T06:32:25.938Z,25
2017-03-01T06:33:34.911Z,25
2017-03-01T06:34:44.092Z,25
2017-03-01T06:35:53.272Z,25
2017-03-01T06:37:02.509Z,30
2017-03-01T06:38:11.922Z,30
2017-03-01T06:39:20.952Z,30
2017-03-01T06:40:29.963Z,30
2017-03-01T06:41:38.988Z,30
2017-03-01T06:42:48.266Z,30
2017-03-01T06:43:57.249Z,30
2017-03-01T06:45:06.350Z,30
2017-03-01T06:46:15.343Z,25
2017-03-01T06:47:24.838Z,25
2017-03-01T06:48:34.113Z,25
2017-03-01T06:49:43.179Z,30
2017-03-01T06:50:52.181Z,30
2017-03-01T06:52:01.170Z,30
2017-03-01T06:53:10.191Z,30
2017-03-01T06:54:19.469Z,30
2017-03-01T06:55:28.451Z,30
2017-03-01T06:56:37.439Z,30
2017-03-01T06:57:46.438Z,25
2017-03-01T06:58:55.407Z,25
2017-03-01T07:00:04.690Z,25
2017-03-01T07:01:13.691Z,25
2017-03-01T07:02:22.765Z,25
2017-03-01T07:03:31.755Z,25
2017-03-01T07:04:40.754Z,25
2017-03-01T07:05:50.042Z,25
2017-03-01T07:06:59.050Z,25
2017-03-01T07:08:08.042Z,25
2017-03-01T07:09:17.092Z,25
2017-03-01T07:10:26.080Z,25
2017-03-01T07:11:35.346Z,30
2017-03-01T07:12:44.736Z,30
2017-03-01T07:13:53.714Z,25
2017-03-01T07:15:02.687Z,30
2017-03-01T07:16:11.685Z,30
2017-03-01T07:17:21.363Z,25
2017-03-01T07:18:30.370Z,25
2017-03-01T07:19:39.358Z,30
2017-03-01T07:20:48.340Z,35
2017-03-01T07:21:57.323Z,45
2017-03-01T07:23:06.605Z,50
2017-03-01T07:24:15.581Z,55
2017-03-01T07:25:24.559Z,60
2017-03-01T07:26:33.532Z,65
2017-03-01T07:27:42.521Z,70
2017-03-01T07:28:51.803Z,65
2017-03-01T07:30:00.858Z,65
2017-03-01T07:31:09.848Z,65
2017-03-01T07:32:18.852Z,65
2017-03-01T07:33:27.856Z,65
2017-03-01T07:34:37.160Z,70
2017-03-01T07:35:46.146Z,60
2017-03-01T07:36:55.217Z,60
2017-03-01T07:38:04.224Z,60
2017-03-01T07:39:13.290Z,55
2017-03-01T07:40:22.669Z,40
2017-03-01T07:41:32.049Z,40
2017-03-01T07:42:41.024Z,40
2017-03-01T07:43:50.004Z,45
2017-03-01T07:44:58.982Z,45
2017-03-01T07:46:08.280Z,40
2017-03-01T07:47:17.250Z,40
2017-03-01T07:48:26.221Z,40
2017-03-01T07:49:35.199Z,50
2017-03-01T07:50:44.189Z,50
2017-03-01T07:51:53.887Z,50
2017-03-01T07:53:02.857Z,50
2017-03-01T07:54:11.829Z,45
2017-03-01T07:55:20.902Z,50
2017-03-01T07:56:29.892Z,50
2017-03-01T07:57:39.186Z,55
2017-03-01T07:58:48.179Z,50
2017-03-01T07:59:57.677Z,50
2017-03-01T08:01:06.689Z,50
2017-03-01T08:02:15.663Z,50
2017-03-01T08:03:24.937Z,45
2017-03-01T08:04:34.025Z,55
2017-03-01T08:05:43.011Z,50
2017-03-01T08:06:51.990Z,45
2017-03-01T08:08:00.964Z,50
2017-03-01T08:09:10.218Z,50
2017-03-01T08:10:19.315Z,55
2017-03-01T08:11:28.387Z,55
2017-03-01T08:12:37.365Z,55
2017-03-01T08:13:46.426Z,55
2017-03-01T08:14:56.104Z,55
2017-03-01T08:16:05.888Z,55
2017-03-01T08:17:14.872Z,55
2017-03-01T08:18:23.860Z,55
2017-03-01T08:19:33.337Z,60
2017-03-01T08:20:42.570Z,55
2017-03-01T08:21:51.560Z,55
2017-03-01T08:23:00.551Z,55
2017-03-01T08:24:09.537Z,60
2017-03-01T08:25:18.529Z,60
2017-03-01T08:26:27.774Z,60
2017-03-01T08:27:36.836Z,70
2017-03-01T08:28:45.817Z,60
2017-03-01T08:29:54.810Z,60
2017-03-01T08:31:03.800Z,65
2017-03-01T08:32:13.087Z,60
2017-03-01T08:33:22.066Z,60
2017-03-01T08:34:31.053Z,60
2017-03-01T08:35:40.054Z,60
2017-03-01T08:36:49.026Z,60
2017-03-01T08:37:58.818Z,60
2017-03-01T08:39:07.803Z,60
2017-03-01T08:40:16.800Z,60
2017-03-01T08:41:25.786Z,65
2017-03-01T08:42:34.772Z,80
2017-03-01T08:43:43.995Z,85
2017-03-01T08:44:52.963Z,85
2017-03-01T08:46:01.960Z,80
2017-03-01T08:47:10.935Z,90
2017-03-01T08:48:20.021Z,100
2017-03-01T08:49:29.313Z,120
2017-03-01T08:50:38.299Z,130
2017-03-01T08:51:47.291Z,135
2017-03-01T08:52:56.280Z,110
2017-03-01T08:54:05.286Z,85
2017-03-01T08:55:14.578Z,105
2017-03-01T08:56:23.584Z,115
2017-03-01T08:57:32.569Z,130
2017-03-01T08:58:41.552Z,135
2017-03-01T08:59:50.936Z,115
2017-03-01T09:01:00.215Z,140
2017-03-01T09:02:09.608Z,100
2017-03-01T09:03:18.599Z,75
2017-03-01T09:04:27.620Z,75
2017-03-01T09:05:36.708Z,65
2017-03-01T09:06:45.953Z,60
2017-03-01T09:07:54.927Z,70
2017-03-01T09:09:03.912Z,80
2017-03-01T09:10:12.898Z,70
2017-03-01T09:11:22.371Z,85
2017-03-01T09:12:31.655Z,75
2017-03-01T09:13:40.631Z,80
2017-03-01T09:14:49.605Z,90
2017-03-01T09:15:58.997Z,95
2017-03-01T09:17:07.994Z,85
2017-03-01T09:18:17.218Z,75
2017-03-01T09:19:26.224Z,90
2017-03-01T09:20:35.219Z,95
2017-03-01T09:21:44.205Z,75
2017-03-01T09:22:53.177Z,100
2017-03-01T09:24:02.455Z,80
2017-03-01T09:25:11.433Z,70
2017-03-01T09:26:20.408Z,80
2017-03-01T09:27:29.438Z,95
2017-03-01T09:28:38.427Z,135
2017-03-01T09:29:47.704Z,110
2017-03-01T09:30:56.699Z,110
2017-03-01T09:32:05.689Z,70
2017-03-01T09:33:14.677Z,80
2017-03-01T09:34:24.076Z,80
2017-03-01T09:35:33.361Z,70
2017-03-01T09:36:42.350Z,95
2017-03-01T09:37:51.347Z,85
2017-03-01T09:39:00.316Z,85
2017-03-01T09:40:09.712Z,95
2017-03-01T09:41:18.998Z,85
2017-03-01T09:42:27.972Z,110
2017-03-01T09:43:37.065Z,100
2017-03-01T09:44:46.073Z,90
2017-03-01T09:45:55.066Z,70
2017-03-01T09:47:04.361Z,65
2017-03-01T09:48:13.542Z,70
2017-03-01T09:49:22.545Z,85
2017-03-01T09:50:31.526Z,65
2017-03-01T09:51:40.520Z,65
2017-03-01T09:52:49.749Z,60
2017-03-01T09:53:58.741Z,55
2017-03-01T09:55:07.810Z,50
2017-03-01T09:56:16.795Z,50
2017-03-01T09:57:25.766Z,50
2017-03-01T09:58:35.136Z,50
2017-03-01T09:59:44.232Z,55
2017-03-01T10:00:53.226Z,60
2017-03-01T10:02:02.221Z,60
2017-03-01T10:03:11.215Z,65
2017-03-01T10:04:20.451Z,80
2017-03-01T10:05:29.444Z,85
2017-03-01T10:06:38.438Z,95
2017-03-01T10:07:47.439Z,100
2017-03-01T10:08:56.522Z,90
2017-03-01T10:10:05.769Z,95
2017-03-01T10:11:14.760Z,90
2017-03-01T10:12:23.847Z,85
2017-03-01T10:13:32.827Z,90
2017-03-01T10:14:41.999Z,110
2017-03-01T10:15:51.287Z,115
2017-03-01T10:17:00.273Z,115
2017-03-01T10:18:09.262Z,140
2017-03-01T10:19:18.234Z,140
2017-03-01T10:20:27.216Z,125
2017-03-01T10:21:36.514Z,130
2017-03-01T10:22:45.519Z,135
2017-03-01T10:23:54.499Z,140
2017-03-01T10:25:03.580Z,140
2017-03-01T10:26:12.598Z,170
2017-03-01T10:27:21.871Z,125
2017-03-01T10:28:30.872Z,115
2017-03-01T10:29:39.868Z,115
2017-03-01T10:30:48.933Z,140
2017-03-01T10:31:57.918Z,200
2017-03-01T10:33:07.174Z,180
2017-03-01T10:34:16.243Z,200
2017-03-01T10:35:25.640Z,185
2017-03-01T10:36:34.728Z,180
2017-03-01T10:37:43.711Z,150
2017-03-01T10:38:53.113Z,155
2017-03-01T10:40:02.101Z,130
2017-03-01T10:41:11.144Z,95
2017-03-01T10:42:20.140Z,100
2017-03-01T10:43:29.206Z,80
2017-03-01T10:44:38.495Z,95
2017-03-01T10:45:47.470Z,95
2017-03-01T10:46:56.472Z,100
2017-03-01T10:48:05.459Z,100
2017-03-01T10:49:14.863Z,110
2017-03-01T10:50:24.147Z,115
2017-03-01T10:51:33.122Z,100
2017-03-01T10:52:42.528Z,120
2017-03-01T10:53:51.513Z,145
2017-03-01T10:55:00.581Z,145
2017-03-01T10:56:09.882Z,160
2017-03-01T10:57:18.866Z,195
2017-03-01T10:58:27.942Z,185
2017-03-01T10:59:36.918Z,140
2017-03-01T11:00:45.917Z,160
2017-03-01T11:01:55.199Z,175
2017-03-01T11:03:04.201Z,195
2017-03-01T11:04:13.294Z,160
2017-03-01T11:05:22.278Z,160
2017-03-01T11:06:31.378Z,155
2017-03-01T11:07:40.689Z,145
2017-03-01T11:08:49.678Z,145
2017-03-01T11:09:58.686Z,140
2017-03-01T11:11:07.673Z,125
2017-03-01T11:12:16.671Z,115
2017-03-01T11:13:25.900Z,105
2017-03-01T11:14:34.904Z,110
2017-03-01T11:15:43.981Z,90
2017-03-01T11:16:52.991Z,135
2017-03-01T11:18:01.984Z,135
2017-03-01T11:19:11.678Z,155
2017-03-01T11:20:20.673Z,145
2017-03-01T11:21:29.660Z,140
2017-03-01T11:22:38.653Z,120
2017-03-01T11:23:47.663Z,120
2017-03-01T11:24:56.947Z,110
2017-03-01T11:26:05.982Z,110
2017-03-01T11:27:14.959Z,105
2017-03-01T11:28:23.948Z,85
2017-03-01T11:29:32.946Z,60
2017-03-01T11:30:42.172Z,60
2017-03-01T11:31:51.173Z,85
2017-03-01T11:33:00.159Z,90
2017-03-01T11:34:09.160Z,90
2017-03-01T11:35:18.141Z,135
2017-03-01T11:36:27.520Z,140
2017-03-01T11:37:36.533Z,135
2017-03-01T11:38:45.932Z,110
2017-03-01T11:39:54.909Z,90
2017-03-01T11:41:03.883Z,100
2017-03-01T11:42:13.170Z,105
2017-03-01T11:43:22.174Z,110
2017-03-01T11:44:31.159Z,110
2017-03-01T11:45:40.235Z,100
2017-03-01T11:46:49.231Z,90
2017-03-01T11:47:58.479Z,90
2017-03-01T11:49:07.484Z,95
2017-03-01T11:50:16.482Z,140
2017-03-01T11:51:25.488Z,125
2017-03-01T11:52:34.477Z,80
2017-03-01T11:53:43.722Z,65
2017-03-01T11:54:52.709Z,80
2017-03-01T11:56:01.710Z,85
2017-03-01T11:57:10.693Z,90
2017-03-01T11:58:19.732Z,75
2017-03-01T11:59:29.030Z,60
2017-03-01T12:00:38.024Z,65
2017-03-01T12:01:47.011Z,65
2017-03-01T12:02:56.133Z,55
2017-03-01T12:04:05.125Z,50
2017-03-01T12:05:14.363Z,50
2017-03-01T12:06:23.353Z,40
2017-03-01T12:07:32.431Z,35
2017-03-01T12:08:41.506Z,35
2017-03-01T12:09:50.483Z,40
2017-03-01T12:10:59.756Z,35
2017-03-01T12:12:08.740Z,45
2017-03-01T12:13:17.727Z,50
2017-03-01T12:14:26.730Z,65
2017-03-01T12:15:35.710Z,70
2017-03-01T12:16:45.009Z,80
2017-03-01T12:17:54.102Z,75
2017-03-01T12:19:03.095Z,70
2017-03-01T12:20:12.082Z,85
2017-03-01T12:21:21.071Z,50
2017-03-01T12:22:30.328Z,65
2017-03-01T12:23:39.313Z,70
2017-03-01T12:24:48.324Z,90
2017-03-01T12:25:57.312Z,65
2017-03-01T12:27:06.333Z,70
2017-03-01T12:28:15.623Z,55
2017-03-01T12:29:24.612Z,70
2017-03-01T12:30:33.614Z,70
2017-03-01T12:31:42.700Z,60
2017-03-01T12:32:51.681Z,45
2017-03-01T12:34:00.959Z,35
2017-03-01T12:35:09.943Z,35
2017-03-01T12:36:19.031Z,35
2017-03-01T12:37:28.014Z,40
2017-03-01T12:38:37.000Z,35
2017-03-01T12:39:46.306Z,40
2017-03-01T12:40:55.300Z,30
2017-03-01T12:42:04.301Z,30
2017-03-01T12:43:13.278Z,40
2017-03-01T12:44:22.267Z,55
2017-03-01T12:45:31.551Z,75
2017-03-01T12:46:40.529Z,125
2017-03-01T12:47:49.515Z,80
2017-03-01T12:48:58.501Z,65
2017-03-01T12:50:07.664Z,60
2017-03-01T12:51:16.914Z,75
2017-03-01T12:52:26.068Z,95
2017-03-01T12:53:35.050Z,100
2017-03-01T12:54:44.198Z,65
2017-03-01T12:55:53.198Z,85
2017-03-01T12:57:02.480Z,100
2017-03-01T12:58:11.477Z,110
2017-03-01T12:59:20.861Z,105
2017-03-01T13:00:29.945Z,100
2017-03-01T13:01:38.933Z,100
2017-03-01T13:02:48.238Z,100
2017-03-01T13:03:57.244Z,90
2017-03-01T13:05:06.221Z,80
2017-03-01T13:06:15.208Z,65
2017-03-01T13:07:24.186Z,70
2017-03-01T13:08:33.556Z,75
2017-03-01T13:09:42.541Z,85
2017-03-01T13:10:51.532Z,90
2017-03-01T13:12:00.542Z,75
2017-03-01T13:13:09.624Z,65
2017-03-01T13:14:18.896Z,55
2017-03-01T13:15:27.899Z,60
2017-03-01T13:16:36.889Z,60
2017-03-01T13:17:45.864Z,65
2017-03-01T13:18:54.851Z,55
2017-03-01T13:20:04.083Z,50
2017-03-01T13:21:13.069Z,50
2017-03-01T13:22:22.065Z,50
2017-03-01T13:23:31.061Z,60
2017-03-01T13:24:40.037Z,60
2017-03-01T13:25:49.324Z,55
2017-03-01T13:26:58.323Z,45
2017-03-01T13:28:07.306Z,55
2017-03-01T13:29:16.468Z,45
2017-03-01T13:30:25.535Z,40
2017-03-01T13:31:35.010Z,40
2017-03-01T13:32:44.004Z,40
2017-03-01T13:33:53.065Z,40
2017-03-01T13:35:02.045Z,50
2017-03-01T13:36:11.025Z,40
2017-03-01T13:37:20.247Z,30
2017-03-01T13:38:29.307Z,35
2017-03-01T13:39:38.308Z,45
2017-03-01T13:40:47.296Z,45
2017-03-01T13:41:56.268Z,50
2017-03-01T13:43:05.505Z,65
2017-03-01T13:44:14.509Z,65
2017-03-01T13:45:23.593Z,85
2017-03-01T13:46:32.585Z,80
2017-03-01T13:47:41.587Z,65
2017-03-01T13:48:50.821Z,75
2017-03-01T13:49:59.812Z,100
2017-03-01T13:51:08.874Z,100
2017-03-01T13:52:18.278Z,90
2017-03-01T13:53:27.259Z,95
2017-03-01T13:54:36.489Z,85
2017-03-01T13:55:45.495Z,85
2017-03-01T13:56:54.480Z,95
2017-03-01T13:58:03.477Z,115
2017-03-01T13:59:12.478Z,100
2017-03-01T14:00:21.848Z,90
2017-03-01T14:01:30.833Z,95
2017-03-01T14:02:39.827Z,85
2017-03-01T14:03:48.897Z,105
2017-03-01T14:04:57.887Z,105
2017-03-01T14:06:07.199Z,110
2017-03-01T14:07:16.179Z,85
2017-03-01T14:08:25.678Z,60
2017-03-01T14:09:34.755Z,65
2017-03-01T14:10:43.728Z,70
2017-03-01T14:11:53.031Z,80
2017-03-01T14:13:02.026Z,105
2017-03-01T14:14:11.004Z,90
2017-03-01T14:15:19.981Z,70
2017-03-01T14:16:29.065Z,65
2017-03-01T14:17:38.354Z,70
2017-03-01T14:18:47.343Z,65
2017-03-01T14:19:56.447Z,75
2017-03-01T14:21:05.447Z,85
2017-03-01T14:22:14.433Z,60
2017-03-01T14:23:23.658Z,35
2017-03-01T14:24:32.644Z,20
2017-03-01T14:25:41.730Z,15
2017-03-01T14:26:50.715Z,15
2017-03-01T14:27:59.693Z,20
2017-03-01T14:29:08.969Z,30
2017-03-01T14:30:17.955Z,45
2017-03-01T14:31:27.023Z,40
2017-03-01T14:32:36.402Z,55
2017-03-01T14:33:45.377Z,30
2017-03-01T14:34:54.674Z,20
2017-03-01T14:36:03.665Z,15
2017-03-01T14:37:12.649Z,15
2017-03-01T14:38:21.633Z,15
2017-03-01T14:39:30.627Z,15
2017-03-01T14:40:39.929Z,15
2017-03-01T14:41:49.003Z,15
2017-03-01T14:42:58.082Z,20
2017-03-01T14:44:07.154Z,25
2017-03-01T14:45:16.163Z,20
2017-03-01T14:46:25.448Z,15
2017-03-01T14:47:34.519Z,15
2017-03-01T14:48:43.919Z,20
2017-03-01T14:49:52.898Z,35
2017-03-01T14:51:01.902Z,45
2017-03-01T14:52:11.198Z,55
2017-03-01T14:53:20.189Z,40
2017-03-01T14:54:29.175Z,40
2017-03-01T14:55:38.345Z,70
2017-03-01T14:56:47.508Z,25
2017-03-01T14:57:56.787Z,15
2017-03-01T14:59:06.184Z,10
2017-03-01T15:00:15.162Z,10
2017-03-01T15:01:24.140Z,20
2017-03-01T15:02:33.113Z,35
2017-03-01T15:03:42.358Z,50
2017-03-01T15:04:51.339Z,60
2017-03-01T15:06:00.329Z,60
2017-03-01T15:07:09.318Z,60
2017-03-01T15:08:18.302Z,60
2017-03-01T15:09:27.591Z,50
2017-03-01T15:10:36.569Z,35
2017-03-01T15:11:45.981Z,35
2017-03-01T15:12:54.961Z,40
2017-03-01T15:14:03.974Z,40
2017-03-01T15:15:13.689Z,35
2017-03-01T15:16:22.676Z,30
2017-03-01T15:17:31.683Z,25
2017-03-01T15:18:40.671Z,25
2017-03-01T15:19:49.730Z,20
2017-03-01T15:20:59.013Z,20
2017-03-01T15:22:08.003Z,20
2017-03-01T15:23:16.982Z,20
2017-03-01T15:24:25.996Z,20
2017-03-01T15:25:34.993Z,25
2017-03-01T15:26:44.263Z,30
2017-03-01T15:27:53.249Z,30
2017-03-01T15:29:02.234Z,30
2017-03-01T15:30:11.229Z,35
2017-03-01T15:31:20.209Z,35
2017-03-01T15:32:29.496Z,35
2017-03-01T15:33:38.475Z,35
2017-03-01T15:34:47.466Z,35
2017-03-01T15:35:56.458Z,35
2017-03-01T15:37:05.457Z,35
2017-03-01T15:38:14.732Z,30
2017-03-01T15:39:23.711Z,30
2017-03-01T15:40:32.686Z,30
2017-03-01T15:41:41.688Z,35
2017-03-01T15:42:50.779Z,40
2017-03-01T15:44:00.167Z,35
2017-03-01T15:45:09.151Z,35
2017-03-01T15:46:18.141Z,40
2017-03-01T15:47:27.218Z,35
2017-03-01T15:48:36.631Z,35
2017-03-01T15:49:45.865Z,30
2017-03-01T15:50:54.848Z,25
2017-03-01T15:52:03.824Z,25
2017-03-01T15:53:12.895Z,30
2017-03-01T15:54:21.958Z,25
2017-03-01T15:55:31.294Z,25
2017-03-01T15:56:40.287Z,20
2017-03-01T15:57:49.280Z,20
2017-03-01T15:58:58.260Z,25
2017-03-01T16:00:07.336Z,20
2017-03-01T16:01:16.617Z,20
2017-03-01T16:02:25.601Z,20
2017-03-01T16:03:34.572Z,20
2017-03-01T16:04:43.546Z,20
2017-03-01T16:05:52.553Z,25
2017-03-01T16:07:01.841Z,20
2017-03-01T16:08:10.832Z,15
2017-03-01T16:09:19.812Z,15
2017-03-01T16:10:28.790Z,15
2017-03-01T16:11:37.865Z,10
2017-03-01T16:12:47.160Z,10
2017-03-01T16:13:56.153Z,10
2017-03-01T16:15:05.149Z,10
2017-03-01T16:16:14.149Z,10
2017-03-01T16:17:23.130Z,5
2017-03-01T16:18:32.372Z,5
2017-03-01T16:19:41.875Z,5
2017-03-01T16:20:50.879Z,5
2017-03-01T16:21:59.958Z,5
2017-03-01T16:23:08.968Z,5
2017-03-01T16:24:18.354Z,5
2017-03-01T16:25:27.329Z,5
2017-03-01T16:26:36.327Z,5
2017-03-01T16:27:45.333Z,5
2017-03-01T16:28:54.351Z,5
2017-03-01T16:30:04.155Z,5
2017-03-01T16:31:14.334Z,5
2017-03-01T16:32:24.439Z,5
2017-03-01T16:33:33.823Z,5
2017-03-01T16:34:43.205Z,5